sensor_id;sensor_type;location;lat;lon;timestamp;temperature;humidity
21722;DHT22;11023;48.274;7.794;2024-03-02T00:00:09;4.50;99.90
21722;DHT22;11023;48.274;7.794;2024-03-02T00:05:09;4.40;99.90
21722;DHT22;11023;48.274;7.794;2024-03-02T00:07:36;4.30;99.90
21722;DHT22;11023;48.274;7.794;2024-03-02T00:10:08;4.40;99.90
21722;DHT22;11023;48.274;7.794;2024-03-02T00:12:39;4.30;99.90
21722;DHT22;11023;48.274;7.794;2024-03-02T00:17:56;4.50;99.90
21722;DHT22;11023;48.274;7.794;2024-03-02T00:20:22;4.50;99.90
21722;DHT22;11023;48.274;7.794;2024-03-02T00:22:52;4.60;99.90
21722;DHT22;11023;48.274;7.794;2024-03-02T00:25:21;4.50;99.90
21722;DHT22;11023;48.274;7.794;2024-03-02T00:27:50;4.50;99.90
21722;DHT22;11023;48.274;7.794;2024-03-02T00:30:46;4.50;99.90
21722;DHT22;11023;48.274;7.794;2024-03-02T00:33:16;4.50;99.90
21722;DHT22;11023;48.274;7.794;2024-03-02T00:35:44;4.50;99.90
21722;DHT22;11023;48.274;7.794;2024-03-02T00:38:11;4.40;99.90
21722;DHT22;11023;48.274;7.794;2024-03-02T00:40:37;4.30;99.90
21722;DHT22;11023;48.274;7.794;2024-03-02T00:43:04;4.30;99.90
21722;DHT22;11023;48.274;7.794;2024-03-02T00:45:30;4.30;99.90
21722;DHT22;11023;48.274;7.794;2024-03-02T00:47:56;4.20;99.90
21722;DHT22;11023;48.274;7.794;2024-03-02T00:50:21;4.20;99.90
21722;DHT22;11023;48.274;7.794;2024-03-02T00:52:47;4.10;99.90
21722;DHT22;11023;48.274;7.794;2024-03-02T00:55:16;4.00;99.90
21722;DHT22;11023;48.274;7.794;2024-03-02T00:57:42;3.90;99.90
21722;DHT22;11023;48.274;7.794;2024-03-02T01:00:09;3.90;99.90
21722;DHT22;11023;48.274;7.794;2024-03-02T01:02:37;3.90;99.90
21722;DHT22;11023;48.274;7.794;2024-03-02T01:05:04;3.80;99.90
21722;DHT22;11023;48.274;7.794;2024-03-02T01:07:31;3.80;99.90
21722;DHT22;11023;48.274;7.794;2024-03-02T01:09:57;3.70;99.90
21722;DHT22;11023;48.274;7.794;2024-03-02T01:12:22;3.60;99.90
21722;DHT22;11023;48.274;7.794;2024-03-02T01:14:50;3.50;99.90
21722;DHT22;11023;48.274;7.794;2024-03-02T01:17:15;3.50;99.90
21722;DHT22;11023;48.274;7.794;2024-03-02T01:19:42;3.50;99.90
21722;DHT22;11023;48.274;7.794;2024-03-02T01:22:07;3.50;99.90
21722;DHT22;11023;48.274;7.794;2024-03-02T01:24:33;3.50;99.90
21722;DHT22;11023;48.274;7.794;2024-03-02T01:26:59;3.50;99.90
21722;DHT22;11023;48.274;7.794;2024-03-02T01:29:25;3.50;99.90
21722;DHT22;11023;48.274;7.794;2024-03-02T01:31:50;3.50;99.90
21722;DHT22;11023;48.274;7.794;2024-03-02T01:34:16;3.40;99.90
21722;DHT22;11023;48.274;7.794;2024-03-02T01:36:43;3.50;99.90
21722;DHT22;11023;48.274;7.794;2024-03-02T01:39:09;3.40;99.90
21722;DHT22;11023;48.274;7.794;2024-03-02T01:41:35;3.50;99.90
21722;DHT22;11023;48.274;7.794;2024-03-02T01:44:00;3.40;99.90
21722;DHT22;11023;48.274;7.794;2024-03-02T01:46:27;3.40;99.90
21722;DHT22;11023;48.274;7.794;2024-03-02T01:48:53;3.40;99.90
21722;DHT22;11023;48.274;7.794;2024-03-02T01:51:18;3.40;99.90
21722;DHT22;11023;48.274;7.794;2024-03-02T01:53:44;3.30;99.90
21722;DHT22;11023;48.274;7.794;2024-03-02T01:56:12;3.40;99.90
21722;DHT22;11023;48.274;7.794;2024-03-02T01:58:37;3.40;99.90
21722;DHT22;11023;48.274;7.794;2024-03-02T02:01:03;3.30;99.90
21722;DHT22;11023;48.274;7.794;2024-03-02T02:03:30;3.40;99.90
21722;DHT22;11023;48.274;7.794;2024-03-02T02:05:56;3.30;99.90
21722;DHT22;11023;48.274;7.794;2024-03-02T02:08:22;3.30;99.90
21722;DHT22;11023;48.274;7.794;2024-03-02T02:10:48;3.30;99.90
21722;DHT22;11023;48.274;7.794;2024-03-02T02:13:14;3.30;99.90
21722;DHT22;11023;48.274;7.794;2024-03-02T02:15:40;3.20;99.90
21722;DHT22;11023;48.274;7.794;2024-03-02T02:18:05;3.20;99.90
21722;DHT22;11023;48.274;7.794;2024-03-02T02:20:31;3.20;99.90
21722;DHT22;11023;48.274;7.794;2024-03-02T02:23:04;3.20;99.90
21722;DHT22;11023;48.274;7.794;2024-03-02T02:25:35;3.20;99.90
21722;DHT22;11023;48.274;7.794;2024-03-02T02:28:02;3.30;99.90
21722;DHT22;11023;48.274;7.794;2024-03-02T02:30:30;3.20;99.90
21722;DHT22;11023;48.274;7.794;2024-03-02T02:32:57;3.20;99.90
21722;DHT22;11023;48.274;7.794;2024-03-02T02:35:23;3.20;99.90
21722;DHT22;11023;48.274;7.794;2024-03-02T02:37:54;3.20;99.90
21722;DHT22;11023;48.274;7.794;2024-03-02T02:40:20;3.20;99.90
21722;DHT22;11023;48.274;7.794;2024-03-02T02:42:46;3.20;99.90
21722;DHT22;11023;48.274;7.794;2024-03-02T02:45:12;3.20;99.90
21722;DHT22;11023;48.274;7.794;2024-03-02T02:47:43;3.10;99.90
21722;DHT22;11023;48.274;7.794;2024-03-02T02:50:11;3.10;99.90
21722;DHT22;11023;48.274;7.794;2024-03-02T02:52:38;2.90;99.90
21722;DHT22;11023;48.274;7.794;2024-03-02T02:55:09;2.80;99.90
21722;DHT22;11023;48.274;7.794;2024-03-02T02:57:36;2.70;99.90
21722;DHT22;11023;48.274;7.794;2024-03-02T03:00:13;2.60;99.90
21722;DHT22;11023;48.274;7.794;2024-03-02T03:02:47;2.60;99.90
21722;DHT22;11023;48.274;7.794;2024-03-02T03:05:14;2.50;99.90
21722;DHT22;11023;48.274;7.794;2024-03-02T03:07:42;2.50;99.90
21722;DHT22;11023;48.274;7.794;2024-03-02T03:10:10;2.50;99.90
21722;DHT22;11023;48.274;7.794;2024-03-02T03:12:36;2.60;99.90
21722;DHT22;11023;48.274;7.794;2024-03-02T03:15:03;2.50;99.90
21722;DHT22;11023;48.274;7.794;2024-03-02T03:17:30;2.60;99.90
21722;DHT22;11023;48.274;7.794;2024-03-02T03:19:56;2.50;99.90
21722;DHT22;11023;48.274;7.794;2024-03-02T03:22:22;2.50;99.90
21722;DHT22;11023;48.274;7.794;2024-03-02T03:24:48;2.50;99.90
21722;DHT22;11023;48.274;7.794;2024-03-02T03:27:14;2.40;99.90
21722;DHT22;11023;48.274;7.794;2024-03-02T03:29:40;2.40;99.90
21722;DHT22;11023;48.274;7.794;2024-03-02T03:32:06;2.30;99.90
21722;DHT22;11023;48.274;7.794;2024-03-02T03:34:35;2.30;99.90
21722;DHT22;11023;48.274;7.794;2024-03-02T03:37:01;2.40;99.90
21722;DHT22;11023;48.274;7.794;2024-03-02T03:39:28;2.40;99.90
21722;DHT22;11023;48.274;7.794;2024-03-02T03:41:54;2.40;99.90
21722;DHT22;11023;48.274;7.794;2024-03-02T03:44:21;2.50;99.90
21722;DHT22;11023;48.274;7.794;2024-03-02T03:46:47;2.50;99.90
21722;DHT22;11023;48.274;7.794;2024-03-02T03:49:12;2.50;99.90
21722;DHT22;11023;48.274;7.794;2024-03-02T03:51:38;2.60;99.90
21722;DHT22;11023;48.274;7.794;2024-03-02T03:54:04;2.60;99.90
21722;DHT22;11023;48.274;7.794;2024-03-02T03:56:30;2.60;99.90
21722;DHT22;11023;48.274;7.794;2024-03-02T03:58:55;2.60;99.90
21722;DHT22;11023;48.274;7.794;2024-03-02T04:01:21;2.50;99.90
21722;DHT22;11023;48.274;7.794;2024-03-02T04:03:52;2.50;99.90
21722;DHT22;11023;48.274;7.794;2024-03-02T04:06:18;2.50;99.90
21722;DHT22;11023;48.274;7.794;2024-03-02T04:08:43;2.40;99.90
21722;DHT22;11023;48.274;7.794;2024-03-02T04:11:09;2.30;99.90
21722;DHT22;11023;48.274;7.794;2024-03-02T04:13:35;2.20;99.90
21722;DHT22;11023;48.274;7.794;2024-03-02T04:16:01;2.20;99.90
21722;DHT22;11023;48.274;7.794;2024-03-02T04:18:28;2.20;99.90
21722;DHT22;11023;48.274;7.794;2024-03-02T04:20:53;2.20;99.90
21722;DHT22;11023;48.274;7.794;2024-03-02T04:23:19;2.20;99.90
21722;DHT22;11023;48.274;7.794;2024-03-02T04:25:45;2.20;99.90
21722;DHT22;11023;48.274;7.794;2024-03-02T04:28:10;2.20;99.90
21722;DHT22;11023;48.274;7.794;2024-03-02T04:30:37;2.20;99.90
21722;DHT22;11023;48.274;7.794;2024-03-02T04:33:03;2.10;99.90
21722;DHT22;11023;48.274;7.794;2024-03-02T04:35:33;2.00;99.90
21722;DHT22;11023;48.274;7.794;2024-03-02T04:37:58;2.00;99.90
21722;DHT22;11023;48.274;7.794;2024-03-02T04:40:24;1.90;99.90
21722;DHT22;11023;48.274;7.794;2024-03-02T04:42:53;1.90;99.90
21722;DHT22;11023;48.274;7.794;2024-03-02T04:45:21;1.90;99.90
21722;DHT22;11023;48.274;7.794;2024-03-02T04:47:47;1.90;99.90
21722;DHT22;11023;48.274;7.794;2024-03-02T04:50:16;1.80;99.90
21722;DHT22;11023;48.274;7.794;2024-03-02T04:52:43;1.80;99.90
21722;DHT22;11023;48.274;7.794;2024-03-02T04:55:08;1.80;99.90
21722;DHT22;11023;48.274;7.794;2024-03-02T04:57:52;1.80;99.90
21722;DHT22;11023;48.274;7.794;2024-03-02T05:00:20;1.80;99.90
21722;DHT22;11023;48.274;7.794;2024-03-02T05:02:46;1.80;99.90
21722;DHT22;11023;48.274;7.794;2024-03-02T05:05:12;1.80;99.90
21722;DHT22;11023;48.274;7.794;2024-03-02T05:07:38;1.80;99.90
21722;DHT22;11023;48.274;7.794;2024-03-02T05:10:04;1.90;99.90
21722;DHT22;11023;48.274;7.794;2024-03-02T05:12:31;1.90;99.90
21722;DHT22;11023;48.274;7.794;2024-03-02T05:15:05;1.90;99.90
21722;DHT22;11023;48.274;7.794;2024-03-02T05:17:32;1.90;99.90
21722;DHT22;11023;48.274;7.794;2024-03-02T05:19:58;2.00;99.90
21722;DHT22;11023;48.274;7.794;2024-03-02T05:22:24;2.00;99.90
21722;DHT22;11023;48.274;7.794;2024-03-02T05:24:50;2.00;99.90
21722;DHT22;11023;48.274;7.794;2024-03-02T05:27:16;2.00;99.90
21722;DHT22;11023;48.274;7.794;2024-03-02T05:29:41;2.00;99.90
21722;DHT22;11023;48.274;7.794;2024-03-02T05:32:07;2.00;99.90
21722;DHT22;11023;48.274;7.794;2024-03-02T05:34:34;2.00;99.90
21722;DHT22;11023;48.274;7.794;2024-03-02T05:37:01;2.10;99.90
21722;DHT22;11023;48.274;7.794;2024-03-02T05:39:28;2.10;99.90
21722;DHT22;11023;48.274;7.794;2024-03-02T05:41:54;2.10;99.90
21722;DHT22;11023;48.274;7.794;2024-03-02T05:44:20;2.10;99.90
21722;DHT22;11023;48.274;7.794;2024-03-02T05:46:46;2.00;99.90
21722;DHT22;11023;48.274;7.794;2024-03-02T05:49:11;2.00;99.90
21722;DHT22;11023;48.274;7.794;2024-03-02T05:51:37;2.00;99.90
21722;DHT22;11023;48.274;7.794;2024-03-02T05:54:03;2.00;99.90
21722;DHT22;11023;48.274;7.794;2024-03-02T05:56:29;2.10;99.90
21722;DHT22;11023;48.274;7.794;2024-03-02T05:58:54;2.20;99.90
21722;DHT22;11023;48.274;7.794;2024-03-02T06:01:34;2.20;99.90
21722;DHT22;11023;48.274;7.794;2024-03-02T06:04:00;2.20;99.90
21722;DHT22;11023;48.274;7.794;2024-03-02T06:06:27;2.20;99.90
21722;DHT22;11023;48.274;7.794;2024-03-02T06:08:53;2.30;99.90
21722;DHT22;11023;48.274;7.794;2024-03-02T06:11:22;2.30;99.90
21722;DHT22;11023;48.274;7.794;2024-03-02T06:13:47;2.30;99.90
21722;DHT22;11023;48.274;7.794;2024-03-02T06:16:13;2.40;99.90
21722;DHT22;11023;48.274;7.794;2024-03-02T06:18:40;2.40;99.90
21722;DHT22;11023;48.274;7.794;2024-03-02T06:21:06;2.50;99.90
21722;DHT22;11023;48.274;7.794;2024-03-02T06:23:32;2.50;99.90
21722;DHT22;11023;48.274;7.794;2024-03-02T06:25:58;2.50;99.90
21722;DHT22;11023;48.274;7.794;2024-03-02T06:28:23;2.60;99.90
21722;DHT22;11023;48.274;7.794;2024-03-02T06:30:49;2.70;99.90
21722;DHT22;11023;48.274;7.794;2024-03-02T06:33:15;2.70;99.90
21722;DHT22;11023;48.274;7.794;2024-03-02T06:35:41;2.70;99.90
21722;DHT22;11023;48.274;7.794;2024-03-02T06:38:07;2.70;99.90
21722;DHT22;11023;48.274;7.794;2024-03-02T06:40:33;2.80;99.90
21722;DHT22;11023;48.274;7.794;2024-03-02T06:42:59;2.80;99.90
21722;DHT22;11023;48.274;7.794;2024-03-02T06:45:25;2.90;99.90
21722;DHT22;11023;48.274;7.794;2024-03-02T06:47:52;2.90;99.90
21722;DHT22;11023;48.274;7.794;2024-03-02T06:50:17;3.00;99.90
21722;DHT22;11023;48.274;7.794;2024-03-02T06:52:44;3.10;99.90
21722;DHT22;11023;48.274;7.794;2024-03-02T06:55:12;3.20;99.90
21722;DHT22;11023;48.274;7.794;2024-03-02T06:57:39;3.30;99.90
21722;DHT22;11023;48.274;7.794;2024-03-02T07:00:05;3.40;99.90
21722;DHT22;11023;48.274;7.794;2024-03-02T07:02:35;3.40;99.90
21722;DHT22;11023;48.274;7.794;2024-03-02T07:05:02;3.50;99.90
21722;DHT22;11023;48.274;7.794;2024-03-02T07:07:28;3.60;99.90
21722;DHT22;11023;48.274;7.794;2024-03-02T07:09:54;3.70;99.90
21722;DHT22;11023;48.274;7.794;2024-03-02T07:12:20;3.70;99.90
21722;DHT22;11023;48.274;7.794;2024-03-02T07:14:47;3.80;99.90
21722;DHT22;11023;48.274;7.794;2024-03-02T07:17:36;3.80;99.90
21722;DHT22;11023;48.274;7.794;2024-03-02T07:20:04;3.80;99.90
21722;DHT22;11023;48.274;7.794;2024-03-02T07:22:30;3.90;99.90
21722;DHT22;11023;48.274;7.794;2024-03-02T07:24:56;3.90;99.90
21722;DHT22;11023;48.274;7.794;2024-03-02T07:27:21;3.90;99.90
21722;DHT22;11023;48.274;7.794;2024-03-02T07:29:47;3.90;99.90
21722;DHT22;11023;48.274;7.794;2024-03-02T07:32:13;3.90;99.90
21722;DHT22;11023;48.274;7.794;2024-03-02T07:34:38;4.10;99.90
21722;DHT22;11023;48.274;7.794;2024-03-02T07:37:06;4.10;99.90
21722;DHT22;11023;48.274;7.794;2024-03-02T07:39:31;4.20;99.90
21722;DHT22;11023;48.274;7.794;2024-03-02T07:41:59;4.20;99.90
21722;DHT22;11023;48.274;7.794;2024-03-02T07:44:28;4.30;99.90
21722;DHT22;11023;48.274;7.794;2024-03-02T07:46:53;4.30;99.90
21722;DHT22;11023;48.274;7.794;2024-03-02T07:49:19;4.40;99.90
21722;DHT22;11023;48.274;7.794;2024-03-02T07:51:45;4.40;99.90
21722;DHT22;11023;48.274;7.794;2024-03-02T07:54:11;4.50;99.90
21722;DHT22;11023;48.274;7.794;2024-03-02T07:56:37;4.50;99.90
21722;DHT22;11023;48.274;7.794;2024-03-02T07:59:03;4.60;99.90
21722;DHT22;11023;48.274;7.794;2024-03-02T08:01:31;4.70;99.90
21722;DHT22;11023;48.274;7.794;2024-03-02T08:04:01;4.80;99.90
21722;DHT22;11023;48.274;7.794;2024-03-02T08:06:29;4.90;99.90
21722;DHT22;11023;48.274;7.794;2024-03-02T08:08:57;5.00;99.90
21722;DHT22;11023;48.274;7.794;2024-03-02T08:11:24;5.00;99.90
21722;DHT22;11023;48.274;7.794;2024-03-02T08:13:50;5.10;99.90
21722;DHT22;11023;48.274;7.794;2024-03-02T08:16:18;5.10;99.90
21722;DHT22;11023;48.274;7.794;2024-03-02T08:18:50;5.20;99.90
21722;DHT22;11023;48.274;7.794;2024-03-02T08:21:16;5.20;99.90
21722;DHT22;11023;48.274;7.794;2024-03-02T08:23:43;5.30;99.90
21722;DHT22;11023;48.274;7.794;2024-03-02T08:26:09;5.40;99.90
21722;DHT22;11023;48.274;7.794;2024-03-02T08:28:36;5.50;99.90
21722;DHT22;11023;48.274;7.794;2024-03-02T08:31:06;5.60;99.90
21722;DHT22;11023;48.274;7.794;2024-03-02T08:33:33;5.70;99.90
21722;DHT22;11023;48.274;7.794;2024-03-02T08:35:59;5.90;99.90
21722;DHT22;11023;48.274;7.794;2024-03-02T08:38:26;5.90;99.90
21722;DHT22;11023;48.274;7.794;2024-03-02T08:40:52;6.00;99.90
21722;DHT22;11023;48.274;7.794;2024-03-02T08:43:19;6.10;99.90
21722;DHT22;11023;48.274;7.794;2024-03-02T08:45:45;6.20;99.90
21722;DHT22;11023;48.274;7.794;2024-03-02T08:48:12;6.40;99.90
21722;DHT22;11023;48.274;7.794;2024-03-02T08:50:39;6.50;99.90
21722;DHT22;11023;48.274;7.794;2024-03-02T08:53:05;6.60;99.90
21722;DHT22;11023;48.274;7.794;2024-03-02T08:55:31;6.60;99.90
21722;DHT22;11023;48.274;7.794;2024-03-02T08:57:57;6.70;99.90
21722;DHT22;11023;48.274;7.794;2024-03-02T09:00:23;6.80;99.90
21722;DHT22;11023;48.274;7.794;2024-03-02T09:02:49;7.00;99.90
21722;DHT22;11023;48.274;7.794;2024-03-02T09:05:15;7.10;99.90
21722;DHT22;11023;48.274;7.794;2024-03-02T09:07:41;7.20;99.90
21722;DHT22;11023;48.274;7.794;2024-03-02T09:10:08;7.40;99.90
21722;DHT22;11023;48.274;7.794;2024-03-02T09:12:34;7.50;99.90
21722;DHT22;11023;48.274;7.794;2024-03-02T09:15:01;7.70;99.90
21722;DHT22;11023;48.274;7.794;2024-03-02T09:17:26;7.80;99.90
21722;DHT22;11023;48.274;7.794;2024-03-02T09:19:53;7.90;99.90
21722;DHT22;11023;48.274;7.794;2024-03-02T09:22:19;7.90;99.90
21722;DHT22;11023;48.274;7.794;2024-03-02T09:24:46;8.00;99.90
21722;DHT22;11023;48.274;7.794;2024-03-02T09:27:12;8.10;99.90
21722;DHT22;11023;48.274;7.794;2024-03-02T09:29:38;8.30;99.90
21722;DHT22;11023;48.274;7.794;2024-03-02T09:32:05;8.40;99.90
21722;DHT22;11023;48.274;7.794;2024-03-02T09:34:32;8.50;99.90
21722;DHT22;11023;48.274;7.794;2024-03-02T09:36:58;8.60;99.90
21722;DHT22;11023;48.274;7.794;2024-03-02T09:39:24;8.70;99.90
21722;DHT22;11023;48.274;7.794;2024-03-02T09:41:51;8.80;99.90
21722;DHT22;11023;48.274;7.794;2024-03-02T09:44:17;8.90;99.90
21722;DHT22;11023;48.274;7.794;2024-03-02T09:46:43;9.10;99.90
21722;DHT22;11023;48.274;7.794;2024-03-02T09:49:12;9.20;99.90
21722;DHT22;11023;48.274;7.794;2024-03-02T09:51:40;9.30;99.90
21722;DHT22;11023;48.274;7.794;2024-03-02T09:54:08;9.40;99.90
21722;DHT22;11023;48.274;7.794;2024-03-02T09:56:33;9.50;99.90
21722;DHT22;11023;48.274;7.794;2024-03-02T09:59:01;9.60;99.90
21722;DHT22;11023;48.274;7.794;2024-03-02T10:01:28;9.70;99.90
21722;DHT22;11023;48.274;7.794;2024-03-02T10:03:54;9.80;99.90
21722;DHT22;11023;48.274;7.794;2024-03-02T10:06:24;9.90;99.90
21722;DHT22;11023;48.274;7.794;2024-03-02T10:08:51;9.90;99.90
21722;DHT22;11023;48.274;7.794;2024-03-02T10:11:31;10.10;99.90
21722;DHT22;11023;48.274;7.794;2024-03-02T10:14:12;10.20;99.90
21722;DHT22;11023;48.274;7.794;2024-03-02T10:16:40;10.30;99.90
21722;DHT22;11023;48.274;7.794;2024-03-02T10:19:16;10.50;99.90
21722;DHT22;11023;48.274;7.794;2024-03-02T10:21:43;10.60;99.90
21722;DHT22;11023;48.274;7.794;2024-03-02T10:24:09;10.70;99.90
21722;DHT22;11023;48.274;7.794;2024-03-02T10:26:35;10.90;99.90
21722;DHT22;11023;48.274;7.794;2024-03-02T10:29:01;11.00;99.90
21722;DHT22;11023;48.274;7.794;2024-03-02T10:31:28;11.10;99.90
21722;DHT22;11023;48.274;7.794;2024-03-02T10:33:57;11.30;99.90
21722;DHT22;11023;48.274;7.794;2024-03-02T10:36:23;11.30;99.90
21722;DHT22;11023;48.274;7.794;2024-03-02T10:38:52;11.50;99.90
21722;DHT22;11023;48.274;7.794;2024-03-02T10:41:23;11.60;99.90
21722;DHT22;11023;48.274;7.794;2024-03-02T10:43:53;11.70;99.90
21722;DHT22;11023;48.274;7.794;2024-03-02T10:46:28;11.80;99.90
21722;DHT22;11023;48.274;7.794;2024-03-02T10:48:58;12.00;99.90
21722;DHT22;11023;48.274;7.794;2024-03-02T10:51:28;12.10;99.90
21722;DHT22;11023;48.274;7.794;2024-03-02T10:53:57;12.30;99.90
21722;DHT22;11023;48.274;7.794;2024-03-02T10:56:39;12.50;99.90
21722;DHT22;11023;48.274;7.794;2024-03-02T10:59:21;12.70;99.90
21722;DHT22;11023;48.274;7.794;2024-03-02T11:01:50;12.90;99.90
21722;DHT22;11023;48.274;7.794;2024-03-02T11:04:19;13.00;99.90
21722;DHT22;11023;48.274;7.794;2024-03-02T11:06:50;13.20;99.90
21722;DHT22;11023;48.274;7.794;2024-03-02T11:09:19;13.40;99.90
21722;DHT22;11023;48.274;7.794;2024-03-02T11:11:49;13.60;99.90
21722;DHT22;11023;48.274;7.794;2024-03-02T11:14:23;13.70;99.90
21722;DHT22;11023;48.274;7.794;2024-03-02T11:16:50;13.90;99.90
21722;DHT22;11023;48.274;7.794;2024-03-02T11:19:17;14.10;99.90
21722;DHT22;11023;48.274;7.794;2024-03-02T11:21:43;14.20;99.90
21722;DHT22;11023;48.274;7.794;2024-03-02T11:24:36;14.30;99.90
21722;DHT22;11023;48.274;7.794;2024-03-02T11:27:03;14.50;99.90
21722;DHT22;11023;48.274;7.794;2024-03-02T11:29:47;14.70;99.90
21722;DHT22;11023;48.274;7.794;2024-03-02T11:32:22;14.90;99.90
21722;DHT22;11023;48.274;7.794;2024-03-02T11:34:51;15.10;99.90
21722;DHT22;11023;48.274;7.794;2024-03-02T11:37:18;15.30;99.90
21722;DHT22;11023;48.274;7.794;2024-03-02T11:39:46;15.40;99.90
21722;DHT22;11023;48.274;7.794;2024-03-02T11:42:13;15.60;99.90
21722;DHT22;11023;48.274;7.794;2024-03-02T11:44:50;15.80;99.90
21722;DHT22;11023;48.274;7.794;2024-03-02T11:47:17;16.00;99.90
21722;DHT22;11023;48.274;7.794;2024-03-02T11:49:54;16.20;99.90
21722;DHT22;11023;48.274;7.794;2024-03-02T11:52:20;16.30;99.90
21722;DHT22;11023;48.274;7.794;2024-03-02T11:54:48;16.40;99.90
21722;DHT22;11023;48.274;7.794;2024-03-02T11:57:18;16.50;99.90
21722;DHT22;11023;48.274;7.794;2024-03-02T11:59:45;16.50;99.90
21722;DHT22;11023;48.274;7.794;2024-03-02T12:02:28;16.50;99.90
21722;DHT22;11023;48.274;7.794;2024-03-02T12:04:54;16.50;99.90
21722;DHT22;11023;48.274;7.794;2024-03-02T12:07:22;16.60;99.90
21722;DHT22;11023;48.274;7.794;2024-03-02T12:09:49;16.60;99.90
21722;DHT22;11023;48.274;7.794;2024-03-02T12:12:15;16.80;99.90
21722;DHT22;11023;48.274;7.794;2024-03-02T12:14:53;16.80;99.90
21722;DHT22;11023;48.274;7.794;2024-03-02T12:17:21;16.90;99.90
21722;DHT22;11023;48.274;7.794;2024-03-02T12:19:47;16.90;99.90
21722;DHT22;11023;48.274;7.794;2024-03-02T12:22:12;17.00;99.90
21722;DHT22;11023;48.274;7.794;2024-03-02T12:24:38;17.10;99.90
21722;DHT22;11023;48.274;7.794;2024-03-02T12:27:05;17.10;99.90
21722;DHT22;11023;48.274;7.794;2024-03-02T12:29:32;17.10;99.90
21722;DHT22;11023;48.274;7.794;2024-03-02T12:31:59;17.20;99.90
21722;DHT22;11023;48.274;7.794;2024-03-02T12:34:27;17.20;99.90
21722;DHT22;11023;48.274;7.794;2024-03-02T12:36:53;17.30;99.90
21722;DHT22;11023;48.274;7.794;2024-03-02T12:39:19;17.30;99.90
21722;DHT22;11023;48.274;7.794;2024-03-02T12:41:46;17.40;99.90
21722;DHT22;11023;48.274;7.794;2024-03-02T12:44:11;17.50;99.90
21722;DHT22;11023;48.274;7.794;2024-03-02T12:46:37;17.60;99.90
21722;DHT22;11023;48.274;7.794;2024-03-02T12:49:11;17.70;99.90
21722;DHT22;11023;48.274;7.794;2024-03-02T12:51:41;17.70;99.90
21722;DHT22;11023;48.274;7.794;2024-03-02T12:54:08;17.80;99.90
21722;DHT22;11023;48.274;7.794;2024-03-02T12:56:36;17.90;99.90
21722;DHT22;11023;48.274;7.794;2024-03-02T12:59:03;18.00;99.90
21722;DHT22;11023;48.274;7.794;2024-03-02T13:01:28;18.10;99.90
21722;DHT22;11023;48.274;7.794;2024-03-02T13:03:55;18.20;99.90
21722;DHT22;11023;48.274;7.794;2024-03-02T13:06:21;18.20;99.90
21722;DHT22;11023;48.274;7.794;2024-03-02T13:08:47;18.30;99.90
21722;DHT22;11023;48.274;7.794;2024-03-02T13:11:13;18.40;99.90
21722;DHT22;11023;48.274;7.794;2024-03-02T13:13:40;18.40;99.90
21722;DHT22;11023;48.274;7.794;2024-03-02T13:16:09;18.50;99.90
21722;DHT22;11023;48.274;7.794;2024-03-02T13:18:36;18.60;99.90
21722;DHT22;11023;48.274;7.794;2024-03-02T13:21:02;18.70;99.90
21722;DHT22;11023;48.274;7.794;2024-03-02T13:23:27;18.80;99.90
21722;DHT22;11023;48.274;7.794;2024-03-02T13:25:56;18.90;99.90
21722;DHT22;11023;48.274;7.794;2024-03-02T13:28:24;19.00;99.90
21722;DHT22;11023;48.274;7.794;2024-03-02T13:30:49;19.10;99.90
21722;DHT22;11023;48.274;7.794;2024-03-02T13:33:15;19.20;99.90
21722;DHT22;11023;48.274;7.794;2024-03-02T13:35:40;19.30;99.90
21722;DHT22;11023;48.274;7.794;2024-03-02T13:38:06;19.30;99.90
21722;DHT22;11023;48.274;7.794;2024-03-02T13:40:32;19.30;99.90
21722;DHT22;11023;48.274;7.794;2024-03-02T13:43:02;19.40;99.90
21722;DHT22;11023;48.274;7.794;2024-03-02T13:45:27;19.40;99.90
21722;DHT22;11023;48.274;7.794;2024-03-02T13:47:53;19.40;99.90
21722;DHT22;11023;48.274;7.794;2024-03-02T13:50:19;19.40;99.90
21722;DHT22;11023;48.274;7.794;2024-03-02T13:52:45;19.40;99.90
21722;DHT22;11023;48.274;7.794;2024-03-02T13:55:11;19.20;99.90
21722;DHT22;11023;48.274;7.794;2024-03-02T13:57:36;19.10;99.90
21722;DHT22;11023;48.274;7.794;2024-03-02T14:00:02;19.00;99.90
21722;DHT22;11023;48.274;7.794;2024-03-02T14:02:29;18.80;99.90
21722;DHT22;11023;48.274;7.794;2024-03-02T14:04:54;18.70;99.90
21722;DHT22;11023;48.274;7.794;2024-03-02T14:07:20;18.60;99.90
21722;DHT22;11023;48.274;7.794;2024-03-02T14:09:46;18.60;99.90
21722;DHT22;11023;48.274;7.794;2024-03-02T14:12:12;18.60;99.90
21722;DHT22;11023;48.274;7.794;2024-03-02T14:14:39;18.40;99.90
21722;DHT22;11023;48.274;7.794;2024-03-02T14:17:04;18.40;99.90
21722;DHT22;11023;48.274;7.794;2024-03-02T14:19:32;18.50;99.90
21722;DHT22;11023;48.274;7.794;2024-03-02T14:21:58;18.50;99.90
21722;DHT22;11023;48.274;7.794;2024-03-02T14:24:24;18.50;99.90
21722;DHT22;11023;48.274;7.794;2024-03-02T14:26:52;18.60;99.90
21722;DHT22;11023;48.274;7.794;2024-03-02T14:29:18;18.60;99.90
21722;DHT22;11023;48.274;7.794;2024-03-02T14:31:43;18.40;99.90
21722;DHT22;11023;48.274;7.794;2024-03-02T14:34:15;18.30;99.90
21722;DHT22;11023;48.274;7.794;2024-03-02T14:36:41;18.30;99.90
21722;DHT22;11023;48.274;7.794;2024-03-02T14:39:09;18.20;99.90
21722;DHT22;11023;48.274;7.794;2024-03-02T14:41:36;18.10;99.90
21722;DHT22;11023;48.274;7.794;2024-03-02T14:44:01;18.10;99.90
21722;DHT22;11023;48.274;7.794;2024-03-02T14:46:27;18.10;99.90
21722;DHT22;11023;48.274;7.794;2024-03-02T14:48:53;18.10;99.90
21722;DHT22;11023;48.274;7.794;2024-03-02T14:51:19;18.00;99.90
21722;DHT22;11023;48.274;7.794;2024-03-02T14:53:44;17.90;99.90
21722;DHT22;11023;48.274;7.794;2024-03-02T14:56:10;18.00;99.90
21722;DHT22;11023;48.274;7.794;2024-03-02T14:58:35;18.00;99.90
21722;DHT22;11023;48.274;7.794;2024-03-02T15:01:03;17.90;99.90
21722;DHT22;11023;48.274;7.794;2024-03-02T15:03:29;17.90;99.90
21722;DHT22;11023;48.274;7.794;2024-03-02T15:05:54;17.80;99.90
21722;DHT22;11023;48.274;7.794;2024-03-02T15:08:20;17.70;99.90
21722;DHT22;11023;48.274;7.794;2024-03-02T15:10:46;17.60;99.90
21722;DHT22;11023;48.274;7.794;2024-03-02T15:13:12;17.60;99.90
21722;DHT22;11023;48.274;7.794;2024-03-02T15:15:38;17.50;99.90
21722;DHT22;11023;48.274;7.794;2024-03-02T15:18:03;17.40;99.90
21722;DHT22;11023;48.274;7.794;2024-03-02T15:20:29;17.30;99.90
21722;DHT22;11023;48.274;7.794;2024-03-02T15:22:55;17.30;99.90
21722;DHT22;11023;48.274;7.794;2024-03-02T15:25:20;17.20;99.90
21722;DHT22;11023;48.274;7.794;2024-03-02T15:27:46;17.10;99.90
21722;DHT22;11023;48.274;7.794;2024-03-02T15:30:12;17.10;99.90
21722;DHT22;11023;48.274;7.794;2024-03-02T15:32:38;17.10;99.90
21722;DHT22;11023;48.274;7.794;2024-03-02T15:35:05;17.00;99.90
21722;DHT22;11023;48.274;7.794;2024-03-02T15:37:31;17.00;99.90
21722;DHT22;11023;48.274;7.794;2024-03-02T15:39:56;17.10;99.90
21722;DHT22;11023;48.274;7.794;2024-03-02T15:42:22;17.10;99.90
21722;DHT22;11023;48.274;7.794;2024-03-02T15:44:51;17.10;99.90